Jackson, MS

6:43 PM CDT on September 01, 2015 (GMT -0500)
Brinkly | | Change Station
CLOSE
Current Station
Personal Weather Station
Location: Jackson, MS
Elevation: 344 ft
Nearby Weather Stations
Active Advisory: Flash Flood Warning

Elev 344 ft 32.35 °N, 90.20 °W | Updated 4 minutes ago

Rain
Rain
74.3 °F
Feels Like 71 °F
N
0.0
Wind Variable Wind from South

Today
High -- | Low -- °F
--% Chance of Precip.
Yesterday
High -- | Low -- °F
Precip. -- in
6:35 AM 7:25 PM
Waning Gibbous, 85% visible
Pressure 30.05 in
Visibility 0.5 miles
Clouds Mostly Cloudy 4300 ft
Overcast 7000 ft
Heat Index 71 °F
Dew Point 73 °F
Humidity 97%
Rainfall 1.17 in
Snow Depth Not available.
UV 0 out of 12
Pollen 9.30 out of 12
Air Quality Not available.
Flu Activity Not available.
SPECI KHKS 012338Z 00000KT 1/2SM +RA FG BKN043 OVC070 23/22 A3005 RMK AO2 LTG DSNT S AND SW P0062 T02280217
Pressure 30.05 in
Visibility 0.5 miles
Clouds Mostly Cloudy 4300 ft
Overcast 7000 ft
Heat Index 71 °F
Dew Point 73 °F
Humidity 97%
Rainfall 1.17 in
Snow Depth Not available.
UV 0 out of 12
Pollen 9.30 out of 12
Air Quality Not available.
Flu Activity Not available.
SPECI KHKS 012338Z 00000KT 1/2SM +RA FG BKN043 OVC070 23/22 A3005 RMK AO2 LTG DSNT S AND SW P0062 T02280217

10-Day Weather Forecast

×

Almanac

Astronomy

Sep. 01, 2015 Rise Set
Actual Time
Civil Twilight
Nautical Twilight
Astronomical Twilight
Moon
Length of Visible Light
Length of Day
Tomorrow will be .
, % of the Moon is Illuminated

Today's Extremes

State Highs State Lows

Community

WunderPhotos

Upload Photos

1,851,643 photos uploaded!

WunderBlogs® & News

Nearby

Air Quality

  Air Quality AQ Index Pollutant
Not available.

Snow Depth

Station Depth Elevation

Earthquake Activity

City Distance Mag. Time & Date
Minimum magnitude displayed is 2.5.

Coastal Water Temperatures

Place Temperature

Stations

Nearby Weather Stations

Station Location Temp. Windchill Dew Point Humidity Wind Precip. Elev Updated Type
                   
Flash Flood Warning
Statement as of 6:12 PM CDT on September 01, 2015

The National Weather Service in Jackson has issued a

* Flash Flood Warning for...
northeastern Hinds County in central Mississippi...

* until 845 PM CDT

* at 611 PM CDT... Doppler radar indicated a thunderstorm producing
heavy rain across the warned area. Up to two inches of rain has
already fallen. Flash flooding is expected to begin shortly
especially within the Jackson city limits.

* Some locations that will experience flooding include...
Jackson... Clinton... Raymond and Pocahontas.

Additional rainfall amounts of two inches are possible in the warned
area.

Precautionary/preparedness actions...

Turn around... dont drown when encountering flooded roads. Most flood
deaths occur in vehicles.


Lat... Lon 3249 9042 3249 9024 3240 9024 3240 9008
      3238 9010 3236 9010 3236 9011 3234 9011
      3231 9016 3229 9015 3229 9018 3226 9018
      3225 9021 3220 9018 3219 9020 3219 9042


Jc